createdAt,value
2019-04-07T00:00:00.452Z,52.73
2019-04-07T00:01:00.446Z,52.63
2019-04-07T00:02:01.022Z,52.23
2019-04-07T00:03:00.422Z,52.53
2019-04-07T00:04:00.784Z,52.63
2019-04-07T00:05:10.167Z,52.43
2019-04-07T00:06:01.457Z,52.03
2019-04-07T00:07:00.371Z,52.63
2019-04-07T00:08:00.822Z,52.12
2019-04-07T00:09:00.504Z,52.33
2019-04-07T00:10:00.477Z,52.76
2019-04-07T00:11:00.366Z,53.57
2019-04-07T00:12:00.573Z,53.06
2019-04-07T00:13:00.306Z,53.06
2019-04-07T00:14:00.297Z,52.96
2019-04-07T00:15:00.284Z,53.78
2019-04-07T00:16:00.398Z,53.47
2019-04-07T00:17:00.770Z,52.86
2019-04-07T00:18:00.559Z,52.96
2019-04-07T00:19:00.248Z,53.27
2019-04-07T00:20:00.650Z,53.37
2019-04-07T00:21:00.282Z,53.37
2019-04-07T00:22:00.215Z,52.45
2019-04-07T00:23:02.308Z,53.17
2019-04-07T00:24:08.182Z,52.86
2019-04-07T00:25:00.716Z,53.19
2019-04-07T00:26:00.244Z,52.86
2019-04-07T00:27:00.163Z,53.37
2019-04-07T00:28:00.843Z,53.47
2019-04-07T00:29:00.133Z,53.29
2019-04-07T00:30:00.127Z,53.06
2019-04-07T00:31:00.580Z,52.96
2019-04-07T00:32:00.166Z,52.45
2019-04-07T00:33:00.767Z,53.19
2019-04-07T00:34:00.491Z,52.86
2019-04-07T00:35:00.074Z,52.37
2019-04-07T00:36:00.197Z,52.05
2019-04-07T00:37:00.093Z,52.78
2019-04-07T00:38:00.596Z,52.86
2019-04-07T00:39:00.557Z,52.68
2019-04-07T00:40:00.017Z,52.15
2019-04-07T00:41:00.175Z,52.35
2019-04-07T00:42:00.021Z,52.25
2019-04-07T00:42:59.978Z,52.48
2019-04-07T00:44:00.058Z,52.89
2019-04-07T00:44:59.982Z,52.37
2019-04-07T00:45:59.945Z,52.96
2019-04-07T00:46:59.940Z,53.37
2019-04-07T00:48:00.435Z,53.19
2019-04-07T00:49:00.307Z,53.90
2019-04-07T00:49:59.905Z,53.59
2019-04-07T00:51:00.293Z,53.70
2019-04-07T00:51:59.885Z,53.90
2019-04-07T00:53:00.192Z,53.70
2019-04-07T00:53:59.862Z,54.11
2019-04-07T00:54:59.851Z,53.80
2019-04-07T00:56:00.364Z,53.83
2019-04-07T00:56:59.833Z,53.93
2019-04-07T00:58:00.425Z,54.24
2019-04-07T00:58:59.910Z,54.24
2019-04-07T00:59:59.799Z,54.54
2019-04-07T01:00:59.841Z,55.55
2019-04-07T01:02:00.344Z,54.03
2019-04-07T01:02:59.760Z,54.24
2019-04-07T01:03:59.916Z,55.18
2019-04-07T01:04:59.919Z,54.94
2019-04-07T01:05:59.727Z,55.15
2019-04-07T01:07:00.232Z,54.66
2019-04-07T01:07:59.743Z,54.66
2019-04-07T01:09:00.250Z,55.58
2019-04-07T01:09:59.701Z,55.38
2019-04-07T01:10:59.685Z,54.66
2019-04-07T01:11:59.664Z,55.71
2019-04-07T01:13:00.088Z,55.41
2019-04-07T01:13:59.637Z,55.30
2019-04-07T01:14:59.665Z,55.91
2019-04-07T01:16:00.216Z,56.12
2019-04-07T01:16:59.626Z,55.41
2019-04-07T01:17:59.972Z,55.84
2019-04-07T01:18:59.616Z,55.81
2019-04-07T01:19:59.750Z,56.22
2019-04-07T01:20:59.579Z,56.22
2019-04-07T01:22:00.015Z,56.22
2019-04-07T01:22:59.545Z,56.12
2019-04-07T01:23:59.542Z,55.74
2019-04-07T01:24:59.526Z,56.52
2019-04-07T01:25:59.527Z,56.22
2019-04-07T01:27:00.189Z,55.53
2019-04-07T01:27:59.494Z,56.32
2019-04-07T01:28:59.473Z,56.65
2019-04-07T01:29:59.608Z,56.35
2019-04-07T01:30:59.453Z,56.24
2019-04-07T01:31:59.512Z,56.35
2019-04-07T01:33:00.020Z,56.17
2019-04-07T01:33:59.554Z,56.35
2019-04-07T01:34:59.711Z,56.07
2019-04-07T01:35:59.840Z,56.04
2019-04-07T01:36:59.845Z,55.94
2019-04-07T01:37:59.954Z,56.17
2019-04-07T01:38:59.973Z,56.55
2019-04-07T01:39:59.362Z,56.15
2019-04-07T01:40:59.856Z,56.65
2019-04-07T01:41:59.343Z,56.15
2019-04-07T01:42:59.802Z,56.76
2019-04-07T01:43:59.312Z,56.35
2019-04-07T01:44:59.936Z,56.04
2019-04-07T01:45:59.857Z,56.96
2019-04-07T01:46:59.281Z,56.55
2019-04-07T01:47:59.447Z,56.48
2019-04-07T01:48:59.264Z,55.97
2019-04-07T01:49:59.761Z,56.96
2019-04-07T01:50:59.358Z,55.84
2019-04-07T01:51:59.229Z,55.63
2019-04-07T01:52:59.258Z,56.07
2019-04-07T01:53:59.813Z,56.27
2019-04-07T01:54:59.196Z,56.17
2019-04-07T01:55:59.550Z,56.68
2019-04-07T01:56:59.174Z,56.68
2019-04-07T01:57:59.733Z,56.88
2019-04-07T01:58:59.155Z,57.29
2019-04-07T01:59:59.156Z,57.62
2019-04-07T02:01:00.331Z,57.70
2019-04-07T02:01:59.382Z,56.68
2019-04-07T02:02:59.113Z,57.21
2019-04-07T02:03:59.107Z,56.71
2019-04-07T02:04:59.108Z,57.12
2019-04-07T02:06:02.508Z,57.21
2019-04-07T02:06:59.130Z,57.75
2019-04-07T02:07:59.227Z,57.65
2019-04-07T02:08:59.042Z,57.55
2019-04-07T02:09:59.778Z,58.06
2019-04-07T02:10:59.128Z,57.24
2019-04-07T02:11:59.462Z,57.42
2019-04-07T02:12:59.001Z,57.55
2019-04-07T02:13:59.296Z,57.62
2019-04-07T02:14:58.986Z,57.73
2019-04-07T02:15:59.136Z,58.16
2019-04-07T02:16:59.335Z,57.86
2019-04-07T02:17:59.366Z,57.86
2019-04-07T02:18:58.928Z,57.93
2019-04-07T02:19:58.917Z,58.06
2019-04-07T02:20:59.068Z,57.55
2019-04-07T02:21:59.189Z,57.96
2019-04-07T02:22:58.891Z,57.96
2019-04-07T02:24:06.740Z,57.04
2019-04-07T02:25:06.967Z,57.24
2019-04-07T02:26:06.997Z,57.75
2019-04-07T02:27:07.590Z,57.65
2019-04-07T02:27:58.828Z,57.24
2019-04-07T02:28:58.841Z,56.73
2019-04-07T02:29:58.921Z,57.32
2019-04-07T02:30:59.016Z,56.94
2019-04-07T02:31:58.810Z,56.84
2019-04-07T02:32:58.818Z,57.14
2019-04-07T02:33:59.954Z,57.04
2019-04-07T02:34:59.260Z,57.04
2019-04-07T02:36:13.633Z,56.73
2019-04-07T02:37:00.139Z,57.04
2019-04-07T02:37:58.741Z,57.34
2019-04-07T02:38:58.713Z,56.63
2019-04-07T02:39:58.968Z,57.04
2019-04-07T02:40:59.680Z,57.45
2019-04-07T02:41:58.681Z,57.34
2019-04-07T02:42:59.014Z,56.73
2019-04-07T02:43:59.596Z,57.55
2019-04-07T02:44:59.308Z,57.34
2019-04-07T02:45:58.640Z,57.45
2019-04-07T02:46:58.954Z,57.12
2019-04-07T02:47:59.663Z,56.84
2019-04-07T02:48:58.638Z,57.45
2019-04-07T02:49:59.397Z,57.65
2019-04-07T02:50:58.743Z,56.94
2019-04-07T02:51:58.573Z,57.14
2019-04-07T02:53:06.396Z,56.94
2019-04-07T02:53:59.375Z,57.45
2019-04-07T02:55:06.424Z,56.84
2019-04-07T02:56:06.644Z,56.73
2019-04-07T02:57:06.490Z,56.84
2019-04-07T02:57:58.568Z,57.37
2019-04-07T02:58:59.396Z,57.68
2019-04-07T02:59:58.478Z,57.34
2019-04-07T03:00:59.276Z,58.06
2019-04-07T03:01:59.282Z,57.88
2019-04-07T03:03:06.049Z,58.19
2019-04-07T03:03:58.444Z,57.27
2019-04-07T03:04:58.635Z,58.09
2019-04-07T03:05:58.631Z,57.78
2019-04-07T03:06:58.739Z,57.96
2019-04-07T03:07:59.395Z,57.48
2019-04-07T03:08:59.376Z,57.88
2019-04-07T03:09:58.376Z,58.39
2019-04-07T03:10:58.720Z,57.48
2019-04-07T03:11:58.360Z,58.29
2019-04-07T03:12:58.837Z,57.55
2019-04-07T03:13:58.683Z,57.48
2019-04-07T03:14:58.641Z,57.98
2019-04-07T03:15:58.311Z,58.09
2019-04-07T03:16:58.304Z,58.39
2019-04-07T03:17:58.287Z,58.09
2019-04-07T03:18:58.289Z,58.19
2019-04-07T03:19:58.273Z,57.37
2019-04-07T03:20:59.201Z,57.98
2019-04-07T03:21:58.278Z,57.60
2019-04-07T03:22:58.808Z,57.57
2019-04-07T03:23:58.588Z,57.78
2019-04-07T03:24:58.413Z,58.09
2019-04-07T03:25:58.263Z,57.60
2019-04-07T03:26:58.191Z,58.42
2019-04-07T03:27:58.186Z,58.52
2019-04-07T03:28:58.176Z,58.62
2019-04-07T03:29:58.903Z,58.52
2019-04-07T03:30:59.055Z,58.22
2019-04-07T03:31:59.528Z,58.93
2019-04-07T03:33:00.524Z,59.34
2019-04-07T03:33:59.530Z,59.55
2019-04-07T03:34:58.319Z,59.57
2019-04-07T03:36:02.000Z,59.47
2019-04-07T03:37:19.318Z,60.39
2019-04-07T03:37:59.323Z,60.28
2019-04-07T03:38:58.998Z,60.39
2019-04-07T03:39:58.870Z,60.39
2019-04-07T03:40:58.997Z,59.78
2019-04-07T03:41:59.017Z,59.88
2019-04-07T03:42:58.017Z,59.16
2019-04-07T03:43:59.139Z,59.30
2019-04-07T03:44:58.704Z,59.47
2019-04-07T03:45:57.995Z,59.27
2019-04-07T03:46:57.969Z,59.39
2019-04-07T03:47:58.904Z,59.91
2019-04-07T03:48:58.078Z,60.31
2019-04-07T03:49:57.939Z,60.52
2019-04-07T03:50:59.922Z,59.78
2019-04-07T03:51:58.201Z,59.80
2019-04-07T03:52:58.439Z,59.60
2019-04-07T03:53:57.919Z,59.91
2019-04-07T03:54:58.767Z,60.49
2019-04-07T03:55:57.910Z,59.91
2019-04-07T03:56:58.415Z,60.11
2019-04-07T03:57:57.849Z,59.80
2019-04-07T03:58:57.996Z,59.91
2019-04-07T03:59:57.904Z,60.21
2019-04-07T04:00:57.820Z,59.50
2019-04-07T04:01:57.813Z,60.11
2019-04-07T04:02:57.799Z,60.93
2019-04-07T04:03:59.022Z,60.62
2019-04-07T04:04:57.794Z,60.62
2019-04-07T04:05:57.783Z,60.31
2019-04-07T04:06:57.753Z,59.91
2019-04-07T04:07:57.785Z,60.65
2019-04-07T04:08:58.660Z,61.06
2019-04-07T04:09:58.161Z,61.26
2019-04-07T04:10:58.075Z,61.57
2019-04-07T04:11:57.712Z,61.98
2019-04-07T04:12:58.430Z,62.08
2019-04-07T04:13:58.261Z,61.26
2019-04-07T04:14:57.712Z,61.77
2019-04-07T04:15:58.687Z,61.77
2019-04-07T04:16:57.952Z,61.47
2019-04-07T04:17:57.629Z,60.85
2019-04-07T04:18:57.637Z,61.06
2019-04-07T04:19:57.622Z,61.06
2019-04-07T04:20:57.617Z,61.47
2019-04-07T04:21:58.753Z,62.18
2019-04-07T04:22:58.259Z,62.29
2019-04-07T04:23:57.828Z,62.08
2019-04-07T04:24:57.753Z,62.39
2019-04-07T04:25:57.545Z,62.39
2019-04-07T04:26:57.540Z,61.88
2019-04-07T04:27:57.538Z,62.18
2019-04-07T04:28:58.267Z,62.29
2019-04-07T04:29:57.609Z,62.26
2019-04-07T04:30:57.866Z,62.29
2019-04-07T04:31:57.479Z,62.16
2019-04-07T04:32:57.470Z,61.75
2019-04-07T04:33:57.984Z,61.54
2019-04-07T04:34:57.618Z,61.57
2019-04-07T04:35:57.448Z,61.34
2019-04-07T04:36:57.456Z,61.36
2019-04-07T04:37:57.790Z,61.67
2019-04-07T04:38:57.949Z,61.98
2019-04-07T04:39:57.483Z,62.29
2019-04-07T04:40:58.130Z,62.29
2019-04-07T04:41:57.701Z,61.88
2019-04-07T04:42:58.195Z,62.73
2019-04-07T04:43:58.008Z,62.21
2019-04-07T04:44:57.346Z,62.62
2019-04-07T04:45:57.336Z,62.93
2019-04-07T04:46:58.283Z,62.55
2019-04-07T04:47:57.352Z,62.65
2019-04-07T04:48:57.306Z,63.24
2019-04-07T04:49:57.714Z,62.32
2019-04-07T04:50:58.032Z,62.76
2019-04-07T04:51:57.626Z,62.65
2019-04-07T04:52:57.257Z,62.45
2019-04-07T04:53:57.266Z,62.73
2019-04-07T04:54:57.240Z,62.11
2019-04-07T04:55:57.677Z,62.62
2019-04-07T04:56:57.221Z,61.93
2019-04-07T04:57:57.813Z,62.14
2019-04-07T04:58:57.193Z,62.62
2019-04-07T04:59:58.016Z,62.65
2019-04-07T05:00:57.772Z,62.11
2019-04-07T05:01:57.162Z,62.73
2019-04-07T05:02:57.269Z,62.21
2019-04-07T05:03:57.134Z,62.52
2019-04-07T05:04:57.400Z,62.11
2019-04-07T05:05:57.740Z,62.45
2019-04-07T05:06:57.123Z,61.83
2019-04-07T05:08:01.784Z,62.11
2019-04-07T05:08:58.130Z,62.01
2019-04-07T05:09:57.076Z,61.80
2019-04-07T05:10:57.602Z,62.52
2019-04-07T05:11:57.523Z,62.11
2019-04-07T05:12:57.262Z,61.91
2019-04-07T05:13:57.028Z,61.70
2019-04-07T05:14:57.167Z,62.01
2019-04-07T05:15:57.010Z,61.80
2019-04-07T05:16:56.995Z,61.77
2019-04-07T05:17:57.307Z,61.91
2019-04-07T05:18:57.340Z,61.91
2019-04-07T05:19:57.654Z,61.47
2019-04-07T05:20:57.504Z,61.80
2019-04-07T05:21:57.128Z,61.70
2019-04-07T05:22:57.590Z,61.09
2019-04-07T05:23:56.936Z,61.26
2019-04-07T05:24:57.472Z,61.40
2019-04-07T05:25:56.896Z,61.67
2019-04-07T05:26:57.338Z,61.26
2019-04-07T05:28:04.718Z,61.26
2019-04-07T05:29:05.935Z,61.88
2019-04-07T05:29:56.896Z,60.55
2019-04-07T05:31:04.645Z,60.85
2019-04-07T05:31:56.835Z,60.65
2019-04-07T05:32:57.479Z,60.65
2019-04-07T05:33:57.465Z,60.85
2019-04-07T05:34:56.817Z,60.01
2019-04-07T05:35:56.867Z,59.91
2019-04-07T05:36:57.550Z,60.31
2019-04-07T05:38:02.666Z,62.26
2019-04-07T05:38:57.759Z,62.26
2019-04-07T05:39:56.745Z,61.24
2019-04-07T05:40:57.423Z,62.36
2019-04-07T05:41:56.737Z,62.77
2019-04-07T05:42:56.720Z,62.23
2019-04-07T05:43:56.971Z,62.02
2019-04-07T05:44:56.690Z,61.99
2019-04-07T05:45:56.682Z,60.16
2019-04-07T05:46:57.007Z,60.74
2019-04-07T05:47:56.660Z,62.58
2019-04-07T05:48:56.715Z,62.27
2019-04-07T05:49:58.772Z,61.43
2019-04-07T05:51:00.505Z,60.41
2019-04-07T05:51:56.664Z,58.54
2019-04-07T05:52:56.620Z,58.14
2019-04-07T05:53:57.070Z,58.03
2019-04-07T05:54:56.585Z,57.01
2019-04-07T05:55:56.574Z,56.60
2019-04-07T05:57:01.202Z,57.52
2019-04-07T05:57:56.562Z,57.52
2019-04-07T05:58:57.119Z,56.91
2019-04-07T05:59:56.538Z,57.32
2019-04-07T06:00:56.985Z,56.91
2019-04-07T06:02:00.731Z,57.21
2019-04-07T06:02:58.205Z,56.99
2019-04-07T06:03:56.718Z,56.71
2019-04-07T06:04:58.630Z,56.91
2019-04-07T06:05:57.776Z,56.27
2019-04-07T06:06:56.468Z,56.27
2019-04-07T06:07:56.942Z,56.30
2019-04-07T06:08:56.432Z,55.97
2019-04-07T06:09:56.430Z,55.97
2019-04-07T06:10:59.959Z,56.58
2019-04-07T06:11:57.699Z,55.46
2019-04-07T06:12:56.552Z,55.35
2019-04-07T06:13:56.569Z,55.35
2019-04-07T06:14:56.462Z,55.94
2019-04-07T06:15:56.514Z,55.94
2019-04-07T06:16:56.346Z,55.33
2019-04-07T06:18:01.103Z,56.35
2019-04-07T06:18:57.755Z,55.61
2019-04-07T06:19:56.856Z,55.63
2019-04-07T06:20:56.467Z,55.33
2019-04-07T06:21:56.967Z,55.30
2019-04-07T06:22:56.499Z,55.99
2019-04-07T06:24:04.727Z,55.18
2019-04-07T06:24:56.262Z,56.29
2019-04-07T06:25:58.083Z,55.79
2019-04-07T06:26:56.529Z,55.96
2019-04-07T06:27:56.852Z,55.35
2019-04-07T06:28:58.715Z,54.03
2019-04-07T06:29:58.987Z,55.15
2019-04-07T06:30:59.442Z,55.63
2019-04-07T06:31:56.309Z,55.63
2019-04-07T06:32:56.910Z,54.90
2019-04-07T06:33:56.787Z,53.78
2019-04-07T06:34:56.147Z,53.88
2019-04-07T06:35:56.233Z,53.17
2019-04-07T06:36:56.516Z,52.35
2019-04-07T06:37:59.363Z,53.17
2019-04-07T06:38:57.098Z,53.37
2019-04-07T06:39:57.060Z,53.37
2019-04-07T06:40:58.731Z,53.06
2019-04-07T06:41:58.959Z,53.85
2019-04-07T06:42:56.765Z,52.84
2019-04-07T06:44:08.944Z,51.92
2019-04-07T06:44:59.821Z,51.90
2019-04-07T06:45:56.350Z,51.90
2019-04-07T06:46:59.109Z,51.87
2019-04-07T06:47:57.010Z,51.98
2019-04-07T06:48:56.067Z,51.46
2019-04-07T06:49:56.402Z,50.84
2019-04-07T06:50:58.282Z,51.21
2019-04-07T06:51:55.962Z,49.92
2019-04-07T06:52:56.604Z,49.59
2019-04-07T06:53:55.940Z,49.57
2019-04-07T06:54:56.345Z,49.59
2019-04-07T06:55:58.430Z,49.87
2019-04-07T06:56:56.521Z,49.80
2019-04-07T06:57:55.897Z,49.59
2019-04-07T06:58:55.885Z,49.06
2019-04-07T06:59:55.870Z,49.16
2019-04-07T07:00:56.853Z,49.16
2019-04-07T07:01:58.484Z,49.57
2019-04-07T07:02:56.500Z,48.76
2019-04-07T07:03:56.323Z,49.75
2019-04-07T07:04:56.164Z,51.75
2019-04-07T07:05:56.163Z,51.95
2019-04-07T07:06:55.801Z,51.02
2019-04-07T07:07:56.374Z,49.19
2019-04-07T07:08:57.329Z,47.47
2019-04-07T07:09:59.676Z,48.28
2019-04-07T07:10:56.304Z,47.88
2019-04-07T07:11:56.127Z,47.47
2019-04-07T07:13:00.040Z,47.47
2019-04-07T07:13:56.723Z,48.06
2019-04-07T07:14:56.129Z,46.75
2019-04-07T07:15:55.749Z,47.15
2019-04-07T07:16:56.484Z,47.15
2019-04-07T07:17:58.588Z,47.25
2019-04-07T07:18:56.093Z,47.03
2019-04-07T07:19:57.377Z,46.92
2019-04-07T07:20:55.752Z,47.23
2019-04-07T07:21:55.769Z,46.50
2019-04-07T07:22:56.156Z,46.70
2019-04-07T07:23:55.844Z,45.79
2019-04-07T07:24:58.898Z,46.58
2019-04-07T07:25:55.598Z,45.77
2019-04-07T07:26:57.684Z,45.14
2019-04-07T07:27:55.564Z,46.48
2019-04-07T07:28:56.010Z,46.68
2019-04-07T07:29:55.576Z,46.36
2019-04-07T07:30:55.697Z,45.45
2019-04-07T07:32:00.119Z,46.05
2019-04-07T07:32:56.513Z,45.73
2019-04-07T07:33:56.120Z,45.90
2019-04-07T07:34:55.522Z,44.67
2019-04-07T07:35:55.483Z,43.57
2019-04-07T07:36:57.782Z,43.85
2019-04-07T07:37:57.607Z,43.95
2019-04-07T07:39:01.211Z,43.65
2019-04-07T07:39:56.439Z,44.23
2019-04-07T07:40:55.772Z,43.20
2019-04-07T07:41:56.675Z,43.28
2019-04-07T07:42:58.118Z,43.08
2019-04-07T07:44:00.356Z,43.08
2019-04-07T07:44:57.067Z,42.35
2019-04-07T07:45:55.611Z,42.25
2019-04-07T07:46:55.524Z,41.85
2019-04-07T07:47:55.350Z,41.65
2019-04-07T07:48:58.796Z,41.53
2019-04-07T07:49:56.326Z,41.91
2019-04-07T07:50:55.833Z,41.59
2019-04-07T07:51:55.977Z,41.57
2019-04-07T07:52:56.101Z,40.17
2019-04-07T07:53:58.647Z,39.66
2019-04-07T07:54:59.785Z,39.86
2019-04-07T07:55:55.424Z,39.76
2019-04-07T07:56:55.918Z,40.67
2019-04-07T07:57:58.128Z,40.69
2019-04-07T07:58:55.230Z,39.64
2019-04-07T07:59:55.315Z,39.95
2019-04-07T08:00:55.567Z,39.84
2019-04-07T08:01:55.552Z,38.72
2019-04-07T08:02:55.777Z,39.53
2019-04-07T08:03:55.802Z,39.03
2019-04-07T08:04:57.910Z,39.03
2019-04-07T08:05:55.148Z,38.90
2019-04-07T08:06:55.150Z,38.68
2019-04-07T08:07:55.196Z,38.67
2019-04-07T08:09:07.598Z,37.66
2019-04-07T08:09:56.890Z,37.55
2019-04-07T08:10:58.385Z,36.73
2019-04-07T08:11:56.086Z,37.31
2019-04-07T08:12:55.087Z,36.83
2019-04-07T08:13:55.452Z,36.91
2019-04-07T08:14:57.280Z,36.01
2019-04-07T08:15:57.203Z,35.69
2019-04-07T08:16:55.441Z,36.38
2019-04-07T08:17:55.040Z,36.08
2019-04-07T08:18:57.104Z,35.88
2019-04-07T08:19:55.688Z,35.81
2019-04-07T08:20:54.993Z,36.01
2019-04-07T08:21:54.986Z,36.01
2019-04-07T08:22:55.063Z,36.19
2019-04-07T08:23:55.657Z,35.81
2019-04-07T08:24:55.555Z,37.11
2019-04-07T08:25:57.045Z,37.61
2019-04-07T08:26:57.159Z,38.29
2019-04-07T08:27:55.355Z,38.79
2019-04-07T08:28:54.906Z,37.77
2019-04-07T08:29:54.889Z,38.26
2019-04-07T08:30:55.713Z,36.86
2019-04-07T08:31:55.403Z,36.56
2019-04-07T08:32:57.121Z,36.84
2019-04-07T08:33:54.913Z,35.83
2019-04-07T08:34:54.879Z,35.76
2019-04-07T08:35:56.076Z,36.58
2019-04-07T08:36:54.827Z,36.66
2019-04-07T08:37:55.591Z,37.96
2019-04-07T08:38:56.754Z,36.26
2019-04-07T08:39:57.037Z,38.04
2019-04-07T08:40:55.197Z,36.44
2019-04-07T08:41:54.763Z,36.31
2019-04-07T08:42:54.758Z,35.91
2019-04-07T08:43:57.534Z,35.35
2019-04-07T08:44:57.207Z,35.24
2019-04-07T08:45:55.325Z,35.93
2019-04-07T08:46:56.768Z,36.15
2019-04-07T08:47:55.251Z,35.66
2019-04-07T08:48:55.389Z,36.38
2019-04-07T08:49:56.885Z,37.27
2019-04-07T08:50:57.273Z,35.96
2019-04-07T08:51:54.920Z,36.13
2019-04-07T08:52:55.361Z,36.02
2019-04-07T08:53:54.839Z,36.82
2019-04-07T08:54:54.627Z,35.53
2019-04-07T08:55:55.267Z,34.81
2019-04-07T08:56:56.795Z,35.91
2019-04-07T08:57:55.046Z,36.67
2019-04-07T08:58:54.581Z,35.19
2019-04-07T08:59:54.584Z,35.69
2019-04-07T09:00:54.562Z,33.91
2019-04-07T09:01:54.566Z,34.23
2019-04-07T09:03:03.073Z,35.44
2019-04-07T09:03:56.075Z,35.46
2019-04-07T09:04:54.685Z,35.74
2019-04-07T09:05:57.374Z,35.93
2019-04-07T09:06:54.873Z,35.91
2019-04-07T09:07:55.154Z,35.79
2019-04-07T09:08:54.987Z,35.08
2019-04-07T09:09:54.527Z,33.88
2019-04-07T09:10:54.941Z,34.38
2019-04-07T09:11:57.298Z,34.27
2019-04-07T09:12:54.434Z,33.78
2019-04-07T09:13:54.840Z,33.90
2019-04-07T09:14:54.600Z,34.20
2019-04-07T09:15:54.555Z,34.38
2019-04-07T09:16:56.327Z,34.09
2019-04-07T09:17:54.421Z,35.59
2019-04-07T09:19:01.140Z,33.98
2019-04-07T09:19:55.414Z,33.90
2019-04-07T09:20:54.357Z,34.51
2019-04-07T09:21:54.382Z,34.00
2019-04-07T09:22:56.649Z,34.09
2019-04-07T09:23:55.686Z,33.80
2019-04-07T09:24:54.315Z,34.08
2019-04-07T09:25:55.047Z,32.68
2019-04-07T09:26:54.438Z,33.78
2019-04-07T09:27:55.030Z,33.20
2019-04-07T09:28:55.835Z,32.90
2019-04-07T09:29:57.662Z,33.70
2019-04-07T09:30:54.709Z,33.88
2019-04-07T09:31:54.237Z,35.16
2019-04-07T09:32:54.626Z,32.67
2019-04-07T09:33:55.024Z,31.86
2019-04-07T09:34:56.131Z,32.35
2019-04-07T09:35:56.663Z,31.67
2019-04-07T09:36:54.425Z,32.17
2019-04-07T09:37:55.153Z,32.86
2019-04-07T09:38:57.102Z,32.74
2019-04-07T09:40:00.365Z,31.83
2019-04-07T09:40:55.915Z,32.42
2019-04-07T09:41:55.218Z,31.73
2019-04-07T09:42:57.437Z,31.13
2019-04-07T09:43:55.272Z,31.71
2019-04-07T09:44:54.107Z,31.21
2019-04-07T09:45:54.094Z,30.91
2019-04-07T09:46:54.183Z,30.72
2019-04-07T09:47:54.071Z,29.82
2019-04-07T09:48:54.064Z,29.71
2019-04-07T09:49:56.613Z,30.21
2019-04-07T09:50:55.426Z,28.91
2019-04-07T09:51:54.032Z,29.44
2019-04-07T09:52:54.022Z,28.83
2019-04-07T09:53:54.457Z,29.24
2019-04-07T09:54:55.561Z,29.13
2019-04-07T09:55:56.899Z,28.62
2019-04-07T09:56:53.978Z,28.30
2019-04-07T09:57:53.974Z,28.99
2019-04-07T09:58:54.618Z,28.39
2019-04-07T09:59:55.332Z,28.28
2019-04-07T10:00:57.334Z,28.80
2019-04-07T10:01:54.134Z,28.60
2019-04-07T10:02:54.075Z,29.30
2019-04-07T10:03:53.899Z,29.08
2019-04-07T10:04:53.897Z,28.49
2019-04-07T10:05:53.895Z,28.59
2019-04-07T10:06:53.870Z,27.70
2019-04-07T10:07:54.366Z,28.11
2019-04-07T10:08:53.851Z,28.47
2019-04-07T10:10:04.619Z,27.58
2019-04-07T10:10:54.898Z,28.67
2019-04-07T10:11:54.327Z,28.28
2019-04-07T10:12:54.366Z,27.68
2019-04-07T10:13:53.806Z,27.68
2019-04-07T10:14:54.052Z,28.17
2019-04-07T10:15:54.271Z,27.57
2019-04-07T10:16:53.780Z,27.57
2019-04-07T10:17:53.757Z,27.47
2019-04-07T10:18:54.562Z,27.36
2019-04-07T10:19:53.886Z,27.34
2019-04-07T10:20:53.875Z,27.04
2019-04-07T10:21:53.756Z,27.25
2019-04-07T10:22:54.169Z,27.15
2019-04-07T10:23:54.032Z,26.74
2019-04-07T10:24:53.698Z,25.65
2019-04-07T10:25:53.676Z,26.44
2019-04-07T10:26:53.745Z,26.27
2019-04-07T10:27:54.389Z,26.56
2019-04-07T10:28:54.243Z,26.56
2019-04-07T10:29:54.540Z,25.77
2019-04-07T10:30:54.095Z,25.87
2019-04-07T10:31:53.614Z,27.17
2019-04-07T10:32:53.614Z,27.00
2019-04-07T10:33:53.882Z,26.70
2019-04-07T10:34:54.314Z,27.59
2019-04-07T10:35:53.575Z,27.61
2019-04-07T10:36:53.571Z,27.78
2019-04-07T10:37:53.570Z,28.27
2019-04-07T10:38:54.111Z,27.75
2019-04-07T10:39:56.026Z,26.67
2019-04-07T10:40:53.532Z,26.37
2019-04-07T10:41:54.222Z,26.38
2019-04-07T10:42:55.470Z,26.46
2019-04-07T10:43:53.489Z,25.86
2019-04-07T10:44:53.772Z,25.73
2019-04-07T10:45:53.827Z,25.35
2019-04-07T10:46:53.878Z,25.95
2019-04-07T10:47:53.493Z,25.44
2019-04-07T10:48:53.685Z,25.32
2019-04-07T10:50:01.518Z,24.32
2019-04-07T10:50:54.431Z,23.91
2019-04-07T10:51:53.430Z,23.99
2019-04-07T10:52:53.535Z,23.49
2019-04-07T10:53:53.687Z,24.57
2019-04-07T10:54:53.633Z,23.29
2019-04-07T10:55:54.248Z,22.50
2019-04-07T10:56:54.108Z,23.81
2019-04-07T10:57:53.805Z,23.63
2019-04-07T10:58:53.988Z,23.94
2019-04-07T10:59:53.359Z,24.65
2019-04-07T11:00:53.820Z,24.33
2019-04-07T11:01:53.426Z,23.93
2019-04-07T11:02:55.511Z,23.73
2019-04-07T11:03:54.750Z,23.33
2019-04-07T11:04:53.282Z,22.53
2019-04-07T11:05:53.740Z,22.75
2019-04-07T11:06:53.646Z,22.66
2019-04-07T11:07:53.731Z,23.14
2019-04-07T11:08:53.498Z,22.23
2019-04-07T11:09:53.273Z,22.62
2019-04-07T11:10:53.320Z,23.44
2019-04-07T11:11:53.414Z,23.44
2019-04-07T11:12:53.761Z,23.63
2019-04-07T11:13:53.439Z,24.02
2019-04-07T11:14:53.204Z,23.71
2019-04-07T11:15:54.084Z,23.13
2019-04-07T11:16:53.724Z,23.61
2019-04-07T11:17:53.151Z,22.52
2019-04-07T11:18:53.145Z,22.41
2019-04-07T11:19:53.197Z,21.71
2019-04-07T11:20:53.134Z,22.50
2019-04-07T11:21:53.117Z,22.59
2019-04-07T11:22:53.148Z,22.09
2019-04-07T11:23:53.445Z,21.11
2019-04-07T11:24:53.775Z,21.22
2019-04-07T11:25:53.693Z,21.41
2019-04-07T11:26:53.877Z,21.20
2019-04-07T11:27:53.887Z,21.19
2019-04-07T11:28:53.688Z,21.80
2019-04-07T11:29:53.871Z,22.09
2019-04-07T11:30:53.064Z,22.86
2019-04-07T11:31:53.348Z,21.30
2019-04-07T11:32:53.328Z,21.30
2019-04-07T11:33:52.997Z,22.56
2019-04-07T11:34:53.088Z,22.47
2019-04-07T11:35:53.245Z,20.79
2019-04-07T11:36:52.971Z,21.47
2019-04-07T11:37:52.960Z,21.07
2019-04-07T11:38:53.468Z,21.17
2019-04-07T11:39:53.462Z,20.48
2019-04-07T11:40:53.503Z,20.09
2019-04-07T11:41:52.920Z,19.49
2019-04-07T11:42:53.455Z,20.28
2019-04-07T11:43:53.333Z,20.18
2019-04-07T11:44:53.082Z,20.57
2019-04-07T11:45:59.135Z,19.98
2019-04-07T11:46:53.992Z,20.28
2019-04-07T11:47:52.850Z,20.50
2019-04-07T11:48:52.893Z,20.70
2019-04-07T11:49:52.828Z,20.70
2019-04-07T11:50:52.825Z,20.98
2019-04-07T11:51:53.581Z,20.79
2019-04-07T11:52:52.810Z,20.61
2019-04-07T11:53:53.341Z,20.76
2019-04-07T11:54:53.008Z,21.64
2019-04-07T11:55:53.210Z,20.83
2019-04-07T11:56:53.402Z,20.92
2019-04-07T11:58:06.684Z,20.21
2019-04-07T11:58:54.128Z,20.83
2019-04-07T11:59:54.002Z,20.72
2019-04-07T12:00:52.947Z,21.13
2019-04-07T12:01:53.074Z,21.53
2019-04-07T12:02:53.607Z,20.92
2019-04-07T12:03:54.539Z,20.81
2019-04-07T12:04:53.426Z,20.22
2019-04-07T12:05:52.665Z,20.31
2019-04-07T12:06:52.663Z,19.61
2019-04-07T12:07:55.778Z,20.41
2019-04-07T12:08:53.377Z,19.61
2019-04-07T12:09:52.631Z,20.48
2019-04-07T12:10:58.518Z,19.09
2019-04-07T12:11:53.851Z,18.40
2019-04-07T12:12:52.758Z,17.54
2019-04-07T12:13:52.677Z,18.14
2019-04-07T12:14:54.571Z,18.05
2019-04-07T12:15:55.254Z,19.23
2019-04-07T12:16:53.395Z,18.82
2019-04-07T12:17:53.415Z,17.43
2019-04-07T12:18:53.701Z,17.23
2019-04-07T12:19:55.055Z,17.72
2019-04-07T12:20:52.945Z,17.42
2019-04-07T12:21:52.516Z,17.79
2019-04-07T12:22:52.834Z,18.09
2019-04-07T12:23:54.247Z,17.71
2019-04-07T12:25:01.872Z,17.69
2019-04-07T12:25:52.750Z,16.52
2019-04-07T12:26:52.463Z,16.44
2019-04-07T12:27:52.446Z,17.35
2019-04-07T12:28:52.521Z,17.55
2019-04-07T12:29:52.443Z,18.14
2019-04-07T12:30:52.962Z,18.52
2019-04-07T12:31:53.215Z,18.30
2019-04-07T12:32:52.588Z,17.60
2019-04-07T12:33:52.767Z,18.27
2019-04-07T12:34:52.381Z,17.40
2019-04-07T12:35:55.211Z,17.00
2019-04-07T12:36:52.993Z,16.61
2019-04-07T12:37:53.066Z,17.39
2019-04-07T12:38:52.341Z,17.29
2019-04-07T12:39:52.332Z,18.00
2019-04-07T12:40:54.838Z,17.71
2019-04-07T12:41:55.939Z,16.82
2019-04-07T12:42:52.387Z,17.79
2019-04-07T12:43:52.286Z,16.90
2019-04-07T12:44:52.801Z,16.49
2019-04-07T12:45:52.611Z,16.19
2019-04-07T12:46:52.948Z,16.39
2019-04-07T12:47:52.844Z,16.49
2019-04-07T12:48:52.238Z,16.11
2019-04-07T12:49:53.123Z,16.49
2019-04-07T12:50:52.389Z,15.80
2019-04-07T12:51:55.682Z,16.80